createdAt,value
2022-09-16T00:00:00.312Z,1.1
2022-09-16T00:05:00.756Z,1.1
2022-09-16T00:10:00.326Z,1.1
2022-09-16T00:15:00.334Z,1.1
2022-09-16T00:20:00.343Z,1.1
2022-09-16T00:25:00.340Z,1.1
2022-09-16T00:30:00.391Z,1.1
2022-09-16T00:35:00.352Z,1.1
2022-09-16T00:40:00.408Z,1.1
2022-09-16T00:45:00.351Z,1.1
2022-09-16T00:50:00.373Z,1.1
2022-09-16T00:55:00.850Z,1.1
2022-09-16T01:00:00.387Z,1.1
2022-09-16T01:05:00.381Z,1.1
2022-09-16T01:10:00.472Z,1.1
2022-09-16T01:15:00.403Z,1.1
2022-09-16T01:20:00.498Z,1.1
2022-09-16T01:25:00.391Z,1.1
2022-09-16T01:30:00.420Z,1.1
2022-09-16T01:35:00.413Z,1.1
2022-09-16T01:40:00.526Z,1.1
2022-09-16T01:45:00.432Z,1.1
2022-09-16T01:50:00.556Z,1.1
2022-09-16T01:55:00.461Z,1.1
2022-09-16T02:00:00.564Z,1.1
2022-09-16T02:05:00.874Z,1.1
2022-09-16T02:10:01.041Z,1.1
2022-09-16T02:15:00.880Z,1.1
2022-09-16T02:20:01.140Z,1.1
2022-09-16T02:25:00.807Z,1.1
2022-09-16T02:30:00.808Z,1.1
2022-09-16T02:35:01.019Z,1.1
2022-09-16T02:40:00.956Z,1.1
2022-09-16T02:45:01.005Z,1.1
2022-09-16T02:50:00.844Z,1.1
2022-09-16T02:55:00.845Z,1.1
2022-09-16T03:00:00.838Z,1.1
2022-09-16T03:05:00.842Z,1.1
2022-09-16T03:10:00.846Z,1.1
2022-09-16T03:15:00.859Z,1.1
2022-09-16T03:20:00.880Z,1.1
2022-09-16T03:25:00.871Z,1.1
2022-09-16T03:30:00.959Z,1.1
2022-09-16T03:35:00.874Z,1.1
2022-09-16T03:40:00.956Z,1.1
2022-09-16T03:45:00.866Z,1.1
2022-09-16T03:50:00.204Z,1.1
2022-09-16T03:55:00.195Z,1.1
2022-09-16T04:00:00.236Z,1.1
2022-09-16T04:05:00.212Z,1.1
2022-09-16T04:10:00.226Z,1.1
2022-09-16T04:15:01.054Z,1.1
2022-09-16T04:20:00.243Z,1.1
2022-09-16T04:25:00.255Z,1.1
2022-09-16T04:30:00.235Z,1.1
2022-09-16T04:35:00.249Z,1.1
2022-09-16T04:40:04.441Z,1.1
2022-09-16T04:45:00.258Z,1.3
2022-09-16T04:50:00.292Z,3.3
2022-09-16T04:55:00.251Z,8
2022-09-16T05:00:00.267Z,16.8
2022-09-16T05:05:00.267Z,26.8
2022-09-16T05:10:00.267Z,30.6
2022-09-16T05:15:00.262Z,51.1
2022-09-16T05:20:00.292Z,67.3
2022-09-16T05:25:00.271Z,69
2022-09-16T05:30:00.299Z,65.7
2022-09-16T05:35:00.312Z,58.3
2022-09-16T05:40:00.402Z,77.7
2022-09-16T05:45:00.295Z,123.9
2022-09-16T05:50:00.338Z,123.9
2022-09-16T05:55:00.310Z,125.4
2022-09-16T06:00:00.383Z,197.5
2022-09-16T06:05:00.299Z,367.8
2022-09-16T06:10:00.362Z,260
2022-09-16T06:15:00.308Z,303.8
2022-09-16T06:20:00.499Z,376.7
2022-09-16T06:25:00.339Z,372.2
2022-09-16T06:30:00.360Z,363.5
2022-09-16T06:35:00.350Z,440.1
2022-09-16T06:40:00.462Z,376.7
2022-09-16T06:45:00.355Z,508
2022-09-16T06:50:00.367Z,1004.4
2022-09-16T06:55:00.381Z,870.2
2022-09-16T07:00:00.369Z,676.9
2022-09-16T07:05:00.374Z,600.6
2022-09-16T07:10:00.387Z,718.6
2022-09-16T07:15:00.401Z,404.8
2022-09-16T07:20:00.403Z,414.5
2022-09-16T07:25:00.407Z,445.4
2022-09-16T07:30:00.763Z,508
2022-09-16T07:35:00.432Z,456.2
2022-09-16T07:40:00.468Z,772.1
2022-09-16T07:45:00.417Z,718.6
2022-09-16T07:50:00.444Z,1260.7
2022-09-16T07:55:00.470Z,1187.5
2022-09-16T08:00:00.407Z,2083.2
2022-09-16T08:05:00.510Z,1544.8
2022-09-16T08:10:00.410Z,2108.2
2022-09-16T08:15:00.471Z,1699.9
2022-09-16T08:20:00.421Z,1041.1
2022-09-16T08:25:00.463Z,1783.3
2022-09-16T08:30:00.554Z,1338.3
2022-09-16T08:35:00.435Z,2809
2022-09-16T08:40:00.587Z,2083.2
2022-09-16T08:45:00.461Z,2292.3
2022-09-16T08:50:00.535Z,1938.9
2022-09-16T08:55:00.543Z,2710.1
2022-09-16T09:00:00.519Z,3611.1
2022-09-16T09:05:00.606Z,3361
2022-09-16T09:10:00.634Z,3281.6
2022-09-16T09:15:00.607Z,3568
2022-09-16T09:20:00.493Z,2133.6
2022-09-16T09:25:00.597Z,376.7
2022-09-16T09:30:00.526Z,1659.7
2022-09-16T09:35:00.539Z,1699.9
2022-09-16T09:40:00.624Z,1848.4
2022-09-16T09:45:02.339Z,1145.6
2022-09-16T09:50:00.330Z,2185.2
2022-09-16T09:55:00.184Z,2742.6
2022-09-16T10:00:00.142Z,2492.4
2022-09-16T10:05:00.166Z,2809
2022-09-16T10:10:00.228Z,3525.6
2022-09-16T10:15:00.141Z,3128.2
2022-09-16T10:20:00.469Z,4218.4
2022-09-16T10:25:00.243Z,3483.7
2022-09-16T10:30:00.410Z,3742.9
2022-09-16T10:35:00.168Z,6334.7
2022-09-16T10:40:00.544Z,3568
2022-09-16T10:45:00.187Z,3973.5
2022-09-16T10:50:00.179Z,3654.5
2022-09-16T10:55:00.699Z,4269.1
2022-09-16T11:00:00.853Z,3742.9
2022-09-16T11:05:00.198Z,1938.9
2022-09-16T11:10:00.246Z,1938.9
2022-09-16T11:15:00.225Z,1544.8
2022-09-16T11:20:01.019Z,2877.1
2022-09-16T11:25:00.395Z,3018
2022-09-16T11:30:00.996Z,5620.7
2022-09-16T11:35:00.225Z,4987.1
2022-09-16T11:40:00.342Z,2646
2022-09-16T11:45:00.252Z,2376
2022-09-16T11:50:00.233Z,3742.9
2022-09-16T11:55:00.599Z,2034
2022-09-16T12:00:00.278Z,2775.6
2022-09-16T12:05:01.016Z,2009.8
2022-09-16T12:10:00.279Z,3833.5
2022-09-16T12:15:04.837Z,3788
2022-09-16T12:20:00.455Z,4987.1
2022-09-16T12:25:00.860Z,5294.6
2022-09-16T12:30:00.321Z,4586.8
2022-09-16T12:35:00.298Z,4372.4
2022-09-16T12:40:00.404Z,5294.6
2022-09-16T12:45:00.454Z,5231.6
2022-09-16T12:50:00.335Z,2742.6
2022-09-16T12:55:08.497Z,4118.8
2022-09-16T13:00:00.350Z,5487.9
2022-09-16T13:05:00.368Z,5422.7
2022-09-16T13:10:00.358Z,3973.5
2022-09-16T13:15:00.868Z,5231.6
2022-09-16T13:20:00.401Z,4425
2022-09-16T13:25:04.634Z,6725.2
2022-09-16T13:30:00.754Z,5967.1
2022-09-16T13:35:00.461Z,2265.1
2022-09-16T13:40:00.784Z,1870.6
2022-09-16T13:45:00.361Z,1370.7
2022-09-16T13:50:00.724Z,1640
2022-09-16T14:00:00.483Z,2433.5
2022-09-16T14:05:00.378Z,1275.8
2022-09-16T14:10:00.767Z,1508.3
2022-09-16T14:15:00.437Z,1679.7
2022-09-16T14:20:00.434Z,1938.9
2022-09-16T14:25:06.308Z,2159.2
2022-09-16T14:30:00.397Z,4425
2022-09-16T14:35:00.447Z,3568
2022-09-16T14:40:00.707Z,3879.6
2022-09-16T14:45:00.574Z,5358.2
2022-09-16T14:50:00.459Z,2842.8
2022-09-16T14:55:00.441Z,4168.3
2022-09-16T15:00:00.449Z,3321.1
2022-09-16T15:05:00.556Z,2677.9
2022-09-16T15:10:00.438Z,2946.7
2022-09-16T15:15:00.541Z,2982.2
2022-09-16T15:20:00.463Z,3654.5
2022-09-16T15:25:00.536Z,2614.6
2022-09-16T15:30:00.578Z,3165.8
2022-09-16T15:35:00.553Z,2877.1
2022-09-16T15:40:00.759Z,1455.2
2022-09-16T15:45:00.571Z,1041.1
2022-09-16T15:50:00.668Z,701.6
2022-09-16T15:55:00.257Z,586.4
2022-09-16T16:00:00.384Z,445.4
2022-09-16T16:05:00.125Z,607.8
2022-09-16T16:10:00.193Z,586.4
2022-09-16T16:15:00.249Z,496
2022-09-16T16:20:00.139Z,282.7
2022-09-16T16:25:00.279Z,244.9
2022-09-16T16:30:00.180Z,334.3
2022-09-16T16:35:00.158Z,790.8
2022-09-16T16:40:00.344Z,762.9
2022-09-16T16:45:00.171Z,660.9
2022-09-16T16:50:00.316Z,622.5
2022-09-16T16:55:00.258Z,429.7
2022-09-16T17:00:00.362Z,207.2
2022-09-16T17:05:00.268Z,131.5
2022-09-16T17:10:00.193Z,122.4
2022-09-16T17:15:00.623Z,186
2022-09-16T17:20:00.625Z,144.7
2022-09-16T17:25:00.217Z,116.7
2022-09-16T17:30:00.340Z,91.9
2022-09-16T17:35:00.238Z,70.6
2022-09-16T17:40:00.285Z,37.9
2022-09-16T17:45:00.240Z,13.1
2022-09-16T17:50:00.239Z,4.6
2022-09-16T17:55:00.247Z,2.7
2022-09-16T18:00:00.273Z,1.1
2022-09-16T18:05:00.361Z,1.1
2022-09-16T18:10:00.269Z,1.1
2022-09-16T18:15:00.293Z,1.1
2022-09-16T18:20:04.973Z,1.1
2022-09-16T18:25:00.297Z,1.1
2022-09-16T18:30:00.765Z,1.1
2022-09-16T18:35:00.280Z,1.1
2022-09-16T18:40:00.372Z,1.1
2022-09-16T18:45:00.286Z,1.1
2022-09-16T18:50:00.321Z,1.1
2022-09-16T18:55:00.307Z,1.1
2022-09-16T19:00:00.316Z,1.1
2022-09-16T19:05:00.305Z,1.1
2022-09-16T19:10:00.324Z,1.1
2022-09-16T19:15:00.311Z,1.1
2022-09-16T19:20:00.352Z,1.1
2022-09-16T19:25:01.541Z,1.1
2022-09-16T19:30:00.333Z,1.1
2022-09-16T19:35:00.328Z,1.1
2022-09-16T19:40:00.405Z,1.1
2022-09-16T19:45:00.348Z,1.1
2022-09-16T19:50:00.371Z,1.1
2022-09-16T19:55:00.369Z,1.1
2022-09-16T20:00:00.380Z,1.1
2022-09-16T20:05:00.359Z,1.1
2022-09-16T20:10:00.402Z,1.1
2022-09-16T20:15:00.370Z,1.1
2022-09-16T20:20:00.384Z,1.1
2022-09-16T20:25:21.315Z,1.1
2022-09-16T20:30:00.398Z,1.1
2022-09-16T20:35:00.396Z,1.1
2022-09-16T20:40:00.446Z,1.1
2022-09-16T20:45:00.400Z,1.1
2022-09-16T20:50:00.404Z,1.1
2022-09-16T20:55:00.466Z,1.1
2022-09-16T21:00:00.418Z,1.1
2022-09-16T21:05:00.420Z,1.1
2022-09-16T21:10:00.472Z,1.1
2022-09-16T21:15:00.442Z,1.1
2022-09-16T21:20:00.439Z,1.1
2022-09-16T21:25:00.459Z,1.1
2022-09-16T21:30:00.500Z,1.1
2022-09-16T21:35:00.593Z,1.1
2022-09-16T21:40:00.509Z,1.1
2022-09-16T21:45:00.452Z,1.1
2022-09-16T21:50:00.294Z,1.1
2022-09-16T21:55:00.146Z,1.1
2022-09-16T22:00:00.358Z,1.1
2022-09-16T22:05:00.143Z,1.1
2022-09-16T22:10:00.141Z,1.1
2022-09-16T22:15:00.139Z,1.1
2022-09-16T22:20:00.156Z,1.1
2022-09-16T22:25:00.149Z,1.1
2022-09-16T22:30:00.182Z,1.1
2022-09-16T22:35:00.166Z,1.1
2022-09-16T22:40:00.245Z,1.1
2022-09-16T22:45:00.374Z,1.1
2022-09-16T22:50:00.197Z,1.1
2022-09-16T22:55:00.214Z,1.1
2022-09-16T23:00:00.234Z,1.1
2022-09-16T23:05:00.308Z,1.1
2022-09-16T23:10:00.317Z,1.1
2022-09-16T23:15:00.294Z,1.1
2022-09-16T23:20:00.306Z,1.1
2022-09-16T23:25:00.313Z,1.1
2022-09-16T23:30:00.257Z,1.1
2022-09-16T23:35:00.229Z,1.1
2022-09-16T23:40:00.323Z,1.1
2022-09-16T23:45:00.248Z,1.1
2022-09-16T23:50:00.295Z,1.1
2022-09-16T23:55:00.293Z,1.1
